sensor_id;sensor_type;location;lat;lon;timestamp;temperature;humidity
22787;DHT22;63134;52.020;4.714;2022-12-18T00:02:05;-0.40;92.90
22787;DHT22;63134;52.020;4.714;2022-12-18T00:04:50;-0.50;92.70
22787;DHT22;63134;52.020;4.714;2022-12-18T00:07:38;-0.50;92.80
22787;DHT22;63134;52.020;4.714;2022-12-18T00:10:24;-0.50;93.10
22787;DHT22;63134;52.020;4.714;2022-12-18T00:13:10;-0.50;93.00
22787;DHT22;63134;52.020;4.714;2022-12-18T00:15:55;-0.40;93.10
22787;DHT22;63134;52.020;4.714;2022-12-18T00:18:50;-0.40;93.10
22787;DHT22;63134;52.020;4.714;2022-12-18T00:21:40;-0.40;92.90
22787;DHT22;63134;52.020;4.714;2022-12-18T00:24:28;-0.50;92.40
22787;DHT22;63134;52.020;4.714;2022-12-18T00:27:14;-0.70;92.50
22787;DHT22;63134;52.020;4.714;2022-12-18T00:30:00;-0.70;92.80
22787;DHT22;63134;52.020;4.714;2022-12-18T00:32:46;-0.60;93.00
22787;DHT22;63134;52.020;4.714;2022-12-18T00:35:35;-0.60;92.90
22787;DHT22;63134;52.020;4.714;2022-12-18T00:38:23;-0.60;92.90
22787;DHT22;63134;52.020;4.714;2022-12-18T00:41:10;-0.60;92.80
22787;DHT22;63134;52.020;4.714;2022-12-18T00:43:56;-0.70;92.50
22787;DHT22;63134;52.020;4.714;2022-12-18T00:46:45;-0.80;92.60
22787;DHT22;63134;52.020;4.714;2022-12-18T00:49:34;-0.70;93.00
22787;DHT22;63134;52.020;4.714;2022-12-18T00:52:22;-0.70;93.20
22787;DHT22;63134;52.020;4.714;2022-12-18T00:55:09;-0.70;93.00
22787;DHT22;63134;52.020;4.714;2022-12-18T00:57:54;-0.70;92.90
22787;DHT22;63134;52.020;4.714;2022-12-18T01:00:40;-0.70;93.10
22787;DHT22;63134;52.020;4.714;2022-12-18T01:03:28;-0.60;92.90
22787;DHT22;63134;52.020;4.714;2022-12-18T01:06:14;-0.60;93.00
22787;DHT22;63134;52.020;4.714;2022-12-18T01:09:00;-0.60;93.00
22787;DHT22;63134;52.020;4.714;2022-12-18T01:11:46;-0.60;92.90
22787;DHT22;63134;52.020;4.714;2022-12-18T01:14:31;-0.60;92.90
22787;DHT22;63134;52.020;4.714;2022-12-18T01:17:23;-0.60;93.00
22787;DHT22;63134;52.020;4.714;2022-12-18T01:20:10;-0.60;92.90
22787;DHT22;63134;52.020;4.714;2022-12-18T01:23:00;-0.60;92.90
22787;DHT22;63134;52.020;4.714;2022-12-18T01:25:48;-0.60;92.80
22787;DHT22;63134;52.020;4.714;2022-12-18T01:28:37;-0.60;92.70
22787;DHT22;63134;52.020;4.714;2022-12-18T01:31:28;-0.70;92.60
22787;DHT22;63134;52.020;4.714;2022-12-18T01:34:14;-0.70;92.70
22787;DHT22;63134;52.020;4.714;2022-12-18T01:37:05;-0.60;92.90
22787;DHT22;63134;52.020;4.714;2022-12-18T01:39:51;-0.60;92.80
22787;DHT22;63134;52.020;4.714;2022-12-18T01:42:39;-0.70;92.60
22787;DHT22;63134;52.020;4.714;2022-12-18T01:45:28;-0.70;92.50
22787;DHT22;63134;52.020;4.714;2022-12-18T01:48:17;-0.70;92.60
22787;DHT22;63134;52.020;4.714;2022-12-18T01:51:04;-0.70;92.70
22787;DHT22;63134;52.020;4.714;2022-12-18T01:53:50;-0.70;92.70
22787;DHT22;63134;52.020;4.714;2022-12-18T01:56:36;-0.70;92.80
22787;DHT22;63134;52.020;4.714;2022-12-18T01:59:22;-0.70;92.70
22787;DHT22;63134;52.020;4.714;2022-12-18T02:02:09;-0.70;92.70
22787;DHT22;63134;52.020;4.714;2022-12-18T02:04:55;-0.70;92.50
22787;DHT22;63134;52.020;4.714;2022-12-18T02:07:43;-0.70;92.40
22787;DHT22;63134;52.020;4.714;2022-12-18T02:14:02;-0.80;92.50
22787;DHT22;63134;52.020;4.714;2022-12-18T02:20:05;-0.80;92.60
22787;DHT22;63134;52.020;4.714;2022-12-18T02:23:12;-0.80;92.60
22787;DHT22;63134;52.020;4.714;2022-12-18T02:29:33;-0.90;92.40
22787;DHT22;63134;52.020;4.714;2022-12-18T02:32:27;-0.90;92.40
22787;DHT22;63134;52.020;4.714;2022-12-18T02:35:22;-0.90;92.30
22787;DHT22;63134;52.020;4.714;2022-12-18T02:38:12;-0.90;92.50
22787;DHT22;63134;52.020;4.714;2022-12-18T02:41:02;-0.90;92.50
22787;DHT22;63134;52.020;4.714;2022-12-18T02:44:00;-1.00;92.40
22787;DHT22;63134;52.020;4.714;2022-12-18T02:46:52;-0.90;92.50
22787;DHT22;63134;52.020;4.714;2022-12-18T02:49:49;-0.90;92.60
22787;DHT22;63134;52.020;4.714;2022-12-18T02:53:10;-1.00;92.50
22787;DHT22;63134;52.020;4.714;2022-12-18T02:56:15;-1.00;92.30
22787;DHT22;63134;52.020;4.714;2022-12-18T02:59:09;-1.00;92.20
22787;DHT22;63134;52.020;4.714;2022-12-18T03:02:18;-1.10;92.30
22787;DHT22;63134;52.020;4.714;2022-12-18T03:05:27;-1.10;92.30
22787;DHT22;63134;52.020;4.714;2022-12-18T03:08:21;-1.10;92.20
22787;DHT22;63134;52.020;4.714;2022-12-18T03:11:13;-1.20;92.20
22787;DHT22;63134;52.020;4.714;2022-12-18T03:14:00;-1.20;92.20
22787;DHT22;63134;52.020;4.714;2022-12-18T03:16:51;-1.20;92.40
22787;DHT22;63134;52.020;4.714;2022-12-18T03:19:38;-1.30;92.00
22787;DHT22;63134;52.020;4.714;2022-12-18T03:22:30;-1.30;92.30
22787;DHT22;63134;52.020;4.714;2022-12-18T03:25:17;-1.30;92.20
22787;DHT22;63134;52.020;4.714;2022-12-18T03:28:05;-1.30;92.40
22787;DHT22;63134;52.020;4.714;2022-12-18T03:30:57;-1.30;92.30
22787;DHT22;63134;52.020;4.714;2022-12-18T03:33:58;-1.40;92.30
22787;DHT22;63134;52.020;4.714;2022-12-18T03:36:52;-1.40;92.20
22787;DHT22;63134;52.020;4.714;2022-12-18T03:39:40;-1.40;92.10
22787;DHT22;63134;52.020;4.714;2022-12-18T03:42:49;-1.50;92.10
22787;DHT22;63134;52.020;4.714;2022-12-18T03:45:42;-1.60;92.20
22787;DHT22;63134;52.020;4.714;2022-12-18T03:48:44;-1.60;92.20
22787;DHT22;63134;52.020;4.714;2022-12-18T03:51:48;-1.60;92.20
22787;DHT22;63134;52.020;4.714;2022-12-18T03:54:39;-1.70;92.00
22787;DHT22;63134;52.020;4.714;2022-12-18T03:57:32;-1.70;92.00
22787;DHT22;63134;52.020;4.714;2022-12-18T04:00:21;-1.80;91.90
22787;DHT22;63134;52.020;4.714;2022-12-18T04:03:20;-1.90;91.80
22787;DHT22;63134;52.020;4.714;2022-12-18T04:06:11;-2.10;91.40
22787;DHT22;63134;52.020;4.714;2022-12-18T04:08:58;-2.20;91.50
22787;DHT22;63134;52.020;4.714;2022-12-18T04:11:46;-2.20;91.60
22787;DHT22;63134;52.020;4.714;2022-12-18T04:14:33;-2.30;91.50
22787;DHT22;63134;52.020;4.714;2022-12-18T04:17:22;-2.40;91.40
22787;DHT22;63134;52.020;4.714;2022-12-18T04:20:09;-2.50;91.30
22787;DHT22;63134;52.020;4.714;2022-12-18T04:22:58;-2.70;91.20
22787;DHT22;63134;52.020;4.714;2022-12-18T04:25:46;-2.80;91.20
22787;DHT22;63134;52.020;4.714;2022-12-18T04:28:38;-2.90;91.50
22787;DHT22;63134;52.020;4.714;2022-12-18T04:31:26;-2.90;91.30
22787;DHT22;63134;52.020;4.714;2022-12-18T04:34:12;-3.00;91.30
22787;DHT22;63134;52.020;4.714;2022-12-18T04:37:05;-3.10;91.20
22787;DHT22;63134;52.020;4.714;2022-12-18T04:39:51;-3.20;91.20
22787;DHT22;63134;52.020;4.714;2022-12-18T04:42:43;-3.20;91.40
22787;DHT22;63134;52.020;4.714;2022-12-18T04:45:30;-3.20;91.50
22787;DHT22;63134;52.020;4.714;2022-12-18T04:48:18;-3.30;91.40
22787;DHT22;63134;52.020;4.714;2022-12-18T04:51:07;-3.30;91.30
22787;DHT22;63134;52.020;4.714;2022-12-18T04:53:54;-3.40;91.40
22787;DHT22;63134;52.020;4.714;2022-12-18T04:56:41;-3.40;91.40
22787;DHT22;63134;52.020;4.714;2022-12-18T04:59:26;-3.50;91.40
22787;DHT22;63134;52.020;4.714;2022-12-18T05:02:14;-3.50;91.60
22787;DHT22;63134;52.020;4.714;2022-12-18T05:05:00;-3.60;91.50
22787;DHT22;63134;52.020;4.714;2022-12-18T05:07:46;-3.60;91.60
22787;DHT22;63134;52.020;4.714;2022-12-18T05:10:31;-3.60;91.60
22787;DHT22;63134;52.020;4.714;2022-12-18T05:13:22;-3.60;91.60
22787;DHT22;63134;52.020;4.714;2022-12-18T05:16:24;-3.70;91.60
22787;DHT22;63134;52.020;4.714;2022-12-18T05:19:09;-3.70;91.70
22787;DHT22;63134;52.020;4.714;2022-12-18T05:21:55;-3.70;91.60
22787;DHT22;63134;52.020;4.714;2022-12-18T05:24:40;-3.70;91.70
22787;DHT22;63134;52.020;4.714;2022-12-18T05:27:26;-3.80;91.80
22787;DHT22;63134;52.020;4.714;2022-12-18T05:30:13;-3.70;91.90
22787;DHT22;63134;52.020;4.714;2022-12-18T05:32:58;-3.80;91.90
22787;DHT22;63134;52.020;4.714;2022-12-18T05:35:44;-3.80;91.80
22787;DHT22;63134;52.020;4.714;2022-12-18T05:38:30;-3.80;91.80
22787;DHT22;63134;52.020;4.714;2022-12-18T05:41:17;-3.80;91.80
22787;DHT22;63134;52.020;4.714;2022-12-18T05:44:03;-3.80;91.90
22787;DHT22;63134;52.020;4.714;2022-12-18T05:46:50;-3.90;91.70
22787;DHT22;63134;52.020;4.714;2022-12-18T05:49:35;-3.90;91.60
22787;DHT22;63134;52.020;4.714;2022-12-18T05:52:21;-4.00;91.70
22787;DHT22;63134;52.020;4.714;2022-12-18T05:55:07;-4.00;91.70
22787;DHT22;63134;52.020;4.714;2022-12-18T05:57:52;-4.00;91.70
22787;DHT22;63134;52.020;4.714;2022-12-18T06:00:40;-4.00;92.00
22787;DHT22;63134;52.020;4.714;2022-12-18T06:03:25;-4.10;91.70
22787;DHT22;63134;52.020;4.714;2022-12-18T06:06:23;-4.10;91.70
22787;DHT22;63134;52.020;4.714;2022-12-18T06:09:09;-4.10;91.80
22787;DHT22;63134;52.020;4.714;2022-12-18T06:11:55;-4.10;91.80
22787;DHT22;63134;52.020;4.714;2022-12-18T06:14:40;-4.10;91.90
22787;DHT22;63134;52.020;4.714;2022-12-18T06:17:30;-4.10;91.90
22787;DHT22;63134;52.020;4.714;2022-12-18T06:20:18;-4.10;91.90
22787;DHT22;63134;52.020;4.714;2022-12-18T06:23:05;-4.10;92.00
22787;DHT22;63134;52.020;4.714;2022-12-18T06:25:51;-4.10;91.90
22787;DHT22;63134;52.020;4.714;2022-12-18T06:28:37;-4.20;91.90
22787;DHT22;63134;52.020;4.714;2022-12-18T06:31:23;-4.10;92.00
22787;DHT22;63134;52.020;4.714;2022-12-18T06:34:09;-4.20;92.00
22787;DHT22;63134;52.020;4.714;2022-12-18T06:36:54;-4.20;91.90
22787;DHT22;63134;52.020;4.714;2022-12-18T06:39:39;-4.20;91.90
22787;DHT22;63134;52.020;4.714;2022-12-18T06:42:25;-4.20;91.90
22787;DHT22;63134;52.020;4.714;2022-12-18T06:45:15;-4.20;92.00
22787;DHT22;63134;52.020;4.714;2022-12-18T06:48:10;-4.20;92.00
22787;DHT22;63134;52.020;4.714;2022-12-18T06:50:56;-4.20;91.90
22787;DHT22;63134;52.020;4.714;2022-12-18T06:53:42;-4.20;92.00
22787;DHT22;63134;52.020;4.714;2022-12-18T06:56:28;-4.20;92.10
22787;DHT22;63134;52.020;4.714;2022-12-18T06:59:14;-4.20;92.00
22787;DHT22;63134;52.020;4.714;2022-12-18T07:01:59;-4.20;92.00
22787;DHT22;63134;52.020;4.714;2022-12-18T07:04:45;-4.20;92.00
22787;DHT22;63134;52.020;4.714;2022-12-18T07:07:34;-4.20;92.00
22787;DHT22;63134;52.020;4.714;2022-12-18T07:10:19;-4.20;92.00
22787;DHT22;63134;52.020;4.714;2022-12-18T07:13:04;-4.20;92.10
22787;DHT22;63134;52.020;4.714;2022-12-18T07:15:50;-4.20;92.10
22787;DHT22;63134;52.020;4.714;2022-12-18T07:18:36;-4.20;92.10
22787;DHT22;63134;52.020;4.714;2022-12-18T07:21:23;-4.20;92.10
22787;DHT22;63134;52.020;4.714;2022-12-18T07:24:08;-4.20;92.10
22787;DHT22;63134;52.020;4.714;2022-12-18T07:26:54;-4.20;92.10
22787;DHT22;63134;52.020;4.714;2022-12-18T07:29:40;-4.20;92.10
22787;DHT22;63134;52.020;4.714;2022-12-18T07:32:25;-4.10;92.30
22787;DHT22;63134;52.020;4.714;2022-12-18T07:35:11;-4.10;92.20
22787;DHT22;63134;52.020;4.714;2022-12-18T07:37:56;-4.10;92.30
22787;DHT22;63134;52.020;4.714;2022-12-18T07:40:42;-4.10;92.20
22787;DHT22;63134;52.020;4.714;2022-12-18T07:43:30;-4.00;92.30
22787;DHT22;63134;52.020;4.714;2022-12-18T07:46:16;-4.00;92.30
22787;DHT22;63134;52.020;4.714;2022-12-18T07:49:04;-4.00;92.30
22787;DHT22;63134;52.020;4.714;2022-12-18T07:51:50;-4.00;92.30
22787;DHT22;63134;52.020;4.714;2022-12-18T07:54:35;-4.00;92.30
22787;DHT22;63134;52.020;4.714;2022-12-18T07:57:21;-4.00;92.30
22787;DHT22;63134;52.020;4.714;2022-12-18T08:00:26;-3.90;92.30
22787;DHT22;63134;52.020;4.714;2022-12-18T08:03:12;-3.90;92.30
22787;DHT22;63134;52.020;4.714;2022-12-18T08:06:02;-3.90;92.30
22787;DHT22;63134;52.020;4.714;2022-12-18T08:08:48;-3.90;92.30
22787;DHT22;63134;52.020;4.714;2022-12-18T08:11:34;-3.90;92.20
22787;DHT22;63134;52.020;4.714;2022-12-18T08:14:25;-3.90;92.20
22787;DHT22;63134;52.020;4.714;2022-12-18T08:17:11;-3.90;92.20
22787;DHT22;63134;52.020;4.714;2022-12-18T08:19:57;-3.90;92.10
22787;DHT22;63134;52.020;4.714;2022-12-18T08:22:42;-3.90;92.10
22787;DHT22;63134;52.020;4.714;2022-12-18T08:25:28;-3.80;92.20
22787;DHT22;63134;52.020;4.714;2022-12-18T08:28:13;-3.80;92.20
22787;DHT22;63134;52.020;4.714;2022-12-18T08:31:02;-3.80;92.20
22787;DHT22;63134;52.020;4.714;2022-12-18T08:33:50;-3.70;92.30
22787;DHT22;63134;52.020;4.714;2022-12-18T08:36:36;-3.60;92.30
22787;DHT22;63134;52.020;4.714;2022-12-18T08:39:21;-3.60;92.30
22787;DHT22;63134;52.020;4.714;2022-12-18T08:42:10;-3.50;92.40
22787;DHT22;63134;52.020;4.714;2022-12-18T08:45:20;-3.50;92.40
22787;DHT22;63134;52.020;4.714;2022-12-18T08:48:07;-3.40;92.40
22787;DHT22;63134;52.020;4.714;2022-12-18T08:50:57;-3.30;92.40
22787;DHT22;63134;52.020;4.714;2022-12-18T08:53:43;-3.30;92.40
22787;DHT22;63134;52.020;4.714;2022-12-18T08:56:30;-3.20;92.40
22787;DHT22;63134;52.020;4.714;2022-12-18T08:59:24;-3.10;92.40
22787;DHT22;63134;52.020;4.714;2022-12-18T09:02:13;-3.00;92.80
22787;DHT22;63134;52.020;4.714;2022-12-18T09:04:58;-3.00;92.40
22787;DHT22;63134;52.020;4.714;2022-12-18T09:07:44;-2.90;92.60
22787;DHT22;63134;52.020;4.714;2022-12-18T09:10:31;-2.80;92.60
22787;DHT22;63134;52.020;4.714;2022-12-18T09:13:18;-2.70;92.50
22787;DHT22;63134;52.020;4.714;2022-12-18T09:16:03;-2.60;92.50
22787;DHT22;63134;52.020;4.714;2022-12-18T09:19:04;-2.50;92.50
22787;DHT22;63134;52.020;4.714;2022-12-18T09:21:55;-2.40;92.50
22787;DHT22;63134;52.020;4.714;2022-12-18T09:24:41;-2.30;92.50
22787;DHT22;63134;52.020;4.714;2022-12-18T09:27:26;-2.30;92.40
22787;DHT22;63134;52.020;4.714;2022-12-18T09:30:12;-2.20;92.40
22787;DHT22;63134;52.020;4.714;2022-12-18T09:33:04;-2.20;92.40
22787;DHT22;63134;52.020;4.714;2022-12-18T09:35:51;-2.10;92.40
22787;DHT22;63134;52.020;4.714;2022-12-18T09:38:36;-2.00;92.40
22787;DHT22;63134;52.020;4.714;2022-12-18T09:44:43;-1.80;92.50
22787;DHT22;63134;52.020;4.714;2022-12-18T09:47:35;-1.70;92.60
22787;DHT22;63134;52.020;4.714;2022-12-18T09:50:37;-1.60;92.60
22787;DHT22;63134;52.020;4.714;2022-12-18T09:53:27;-1.50;92.50
22787;DHT22;63134;52.020;4.714;2022-12-18T09:56:18;-1.50;92.30
22787;DHT22;63134;52.020;4.714;2022-12-18T09:59:04;-1.40;92.50
22787;DHT22;63134;52.020;4.714;2022-12-18T10:01:50;-1.30;92.80
22787;DHT22;63134;52.020;4.714;2022-12-18T10:04:36;-1.20;92.70
22787;DHT22;63134;52.020;4.714;2022-12-18T10:07:33;-1.10;92.50
22787;DHT22;63134;52.020;4.714;2022-12-18T10:10:33;-1.00;92.50
22787;DHT22;63134;52.020;4.714;2022-12-18T10:19:35;-0.80;92.40
22787;DHT22;63134;52.020;4.714;2022-12-18T10:25:49;-0.70;92.20
22787;DHT22;63134;52.020;4.714;2022-12-18T10:28:37;-0.60;92.30
22787;DHT22;63134;52.020;4.714;2022-12-18T10:31:24;-0.60;92.30
22787;DHT22;63134;52.020;4.714;2022-12-18T10:34:13;-0.50;92.20
22787;DHT22;63134;52.020;4.714;2022-12-18T10:37:01;-0.40;92.30
22787;DHT22;63134;52.020;4.714;2022-12-18T10:43:14;-0.30;92.00
22787;DHT22;63134;52.020;4.714;2022-12-18T10:48:55;-0.10;92.30
22787;DHT22;63134;52.020;4.714;2022-12-18T10:51:41;-0.10;92.30
22787;DHT22;63134;52.020;4.714;2022-12-18T10:54:28;0.00;92.00
22787;DHT22;63134;52.020;4.714;2022-12-18T10:57:37;0.10;92.10
22787;DHT22;63134;52.020;4.714;2022-12-18T11:00:28;0.10;91.90
22787;DHT22;63134;52.020;4.714;2022-12-18T11:03:40;0.20;92.00
22787;DHT22;63134;52.020;4.714;2022-12-18T11:06:26;0.20;91.90
22787;DHT22;63134;52.020;4.714;2022-12-18T11:09:24;0.30;92.00
22787;DHT22;63134;52.020;4.714;2022-12-18T11:12:22;0.40;92.10
22787;DHT22;63134;52.020;4.714;2022-12-18T11:15:40;0.50;92.20
22787;DHT22;63134;52.020;4.714;2022-12-18T11:18:35;0.60;92.00
22787;DHT22;63134;52.020;4.714;2022-12-18T11:21:22;0.60;91.80
22787;DHT22;63134;52.020;4.714;2022-12-18T11:24:19;0.70;92.00
22787;DHT22;63134;52.020;4.714;2022-12-18T11:27:16;0.80;91.90
22787;DHT22;63134;52.020;4.714;2022-12-18T11:30:31;0.90;92.10
22787;DHT22;63134;52.020;4.714;2022-12-18T11:33:21;1.00;91.90
22787;DHT22;63134;52.020;4.714;2022-12-18T11:36:08;1.10;91.80
22787;DHT22;63134;52.020;4.714;2022-12-18T11:38:56;1.20;92.00
22787;DHT22;63134;52.020;4.714;2022-12-18T11:48:05;1.30;91.50
22787;DHT22;63134;52.020;4.714;2022-12-18T11:50:56;1.20;91.30
22787;DHT22;63134;52.020;4.714;2022-12-18T11:53:42;1.20;91.20
22787;DHT22;63134;52.020;4.714;2022-12-18T11:56:36;1.30;91.30
22787;DHT22;63134;52.020;4.714;2022-12-18T11:59:47;1.20;91.10
22787;DHT22;63134;52.020;4.714;2022-12-18T12:05:45;1.30;91.00
22787;DHT22;63134;52.020;4.714;2022-12-18T12:08:55;1.30;91.00
22787;DHT22;63134;52.020;4.714;2022-12-18T12:11:52;1.30;90.90
22787;DHT22;63134;52.020;4.714;2022-12-18T12:18:27;1.30;91.00
22787;DHT22;63134;52.020;4.714;2022-12-18T12:21:33;1.30;91.10
22787;DHT22;63134;52.020;4.714;2022-12-18T12:24:56;1.30;90.80
22787;DHT22;63134;52.020;4.714;2022-12-18T12:33:56;1.40;90.50
22787;DHT22;63134;52.020;4.714;2022-12-18T12:39:51;1.40;90.60
22787;DHT22;63134;52.020;4.714;2022-12-18T12:42:42;1.40;90.50
22787;DHT22;63134;52.020;4.714;2022-12-18T12:46:09;1.50;90.60
22787;DHT22;63134;52.020;4.714;2022-12-18T12:48:58;1.50;90.50
22787;DHT22;63134;52.020;4.714;2022-12-18T12:51:49;1.50;90.50
22787;DHT22;63134;52.020;4.714;2022-12-18T12:55:00;1.50;90.40
22787;DHT22;63134;52.020;4.714;2022-12-18T13:04:30;1.50;90.20
22787;DHT22;63134;52.020;4.714;2022-12-18T13:07:45;1.50;90.30
22787;DHT22;63134;52.020;4.714;2022-12-18T13:13:20;1.50;90.10
22787;DHT22;63134;52.020;4.714;2022-12-18T13:16:08;1.50;90.20
22787;DHT22;63134;52.020;4.714;2022-12-18T13:18:58;1.50;90.00
22787;DHT22;63134;52.020;4.714;2022-12-18T13:21:53;1.60;90.20
22787;DHT22;63134;52.020;4.714;2022-12-18T13:24:39;1.60;90.50
22787;DHT22;63134;52.020;4.714;2022-12-18T13:36:31;1.60;89.90
22787;DHT22;63134;52.020;4.714;2022-12-18T13:39:24;1.50;89.70
22787;DHT22;63134;52.020;4.714;2022-12-18T13:45:40;1.60;89.60
22787;DHT22;63134;52.020;4.714;2022-12-18T13:48:28;1.50;89.20
22787;DHT22;63134;52.020;4.714;2022-12-18T13:51:17;1.60;89.50
22787;DHT22;63134;52.020;4.714;2022-12-18T13:54:21;1.60;89.50
22787;DHT22;63134;52.020;4.714;2022-12-18T14:00:24;1.50;89.10
22787;DHT22;63134;52.020;4.714;2022-12-18T14:03:21;1.50;89.00
22787;DHT22;63134;52.020;4.714;2022-12-18T14:06:08;1.60;89.20
22787;DHT22;63134;52.020;4.714;2022-12-18T14:08:59;1.60;89.30
22787;DHT22;63134;52.020;4.714;2022-12-18T14:11:49;1.60;89.10
22787;DHT22;63134;52.020;4.714;2022-12-18T14:14:35;1.60;89.40
22787;DHT22;63134;52.020;4.714;2022-12-18T14:17:22;1.60;89.00
22787;DHT22;63134;52.020;4.714;2022-12-18T14:20:14;1.60;89.00
22787;DHT22;63134;52.020;4.714;2022-12-18T14:23:01;1.60;89.10
22787;DHT22;63134;52.020;4.714;2022-12-18T14:25:49;1.60;89.10
22787;DHT22;63134;52.020;4.714;2022-12-18T14:28:43;1.60;88.70
22787;DHT22;63134;52.020;4.714;2022-12-18T14:31:34;1.70;89.10
22787;DHT22;63134;52.020;4.714;2022-12-18T14:34:26;1.60;88.60
22787;DHT22;63134;52.020;4.714;2022-12-18T14:37:13;1.60;88.50
22787;DHT22;63134;52.020;4.714;2022-12-18T14:40:05;1.60;88.70
22787;DHT22;63134;52.020;4.714;2022-12-18T14:42:55;1.60;88.30
22787;DHT22;63134;52.020;4.714;2022-12-18T14:45:43;1.60;88.60
22787;DHT22;63134;52.020;4.714;2022-12-18T14:48:41;1.60;88.40
22787;DHT22;63134;52.020;4.714;2022-12-18T14:51:30;1.50;88.10
22787;DHT22;63134;52.020;4.714;2022-12-18T14:54:19;1.50;87.80
22787;DHT22;63134;52.020;4.714;2022-12-18T14:57:21;1.50;88.00
22787;DHT22;63134;52.020;4.714;2022-12-18T15:00:15;1.50;88.20
22787;DHT22;63134;52.020;4.714;2022-12-18T15:03:01;1.50;88.20
22787;DHT22;63134;52.020;4.714;2022-12-18T15:05:53;1.50;88.20
22787;DHT22;63134;52.020;4.714;2022-12-18T15:08:38;1.50;87.90
22787;DHT22;63134;52.020;4.714;2022-12-18T15:11:45;1.40;87.70
22787;DHT22;63134;52.020;4.714;2022-12-18T15:14:39;1.40;87.70
22787;DHT22;63134;52.020;4.714;2022-12-18T15:17:25;1.40;87.80
22787;DHT22;63134;52.020;4.714;2022-12-18T15:20:11;1.40;87.60
22787;DHT22;63134;52.020;4.714;2022-12-18T15:22:59;1.40;87.80
22787;DHT22;63134;52.020;4.714;2022-12-18T15:25:45;1.40;87.70
22787;DHT22;63134;52.020;4.714;2022-12-18T15:28:35;1.40;87.70
22787;DHT22;63134;52.020;4.714;2022-12-18T15:34:14;1.30;87.50
22787;DHT22;63134;52.020;4.714;2022-12-18T15:37:06;1.30;87.60
22787;DHT22;63134;52.020;4.714;2022-12-18T15:39:55;1.40;87.70
22787;DHT22;63134;52.020;4.714;2022-12-18T15:42:41;1.40;87.70
22787;DHT22;63134;52.020;4.714;2022-12-18T15:45:46;1.40;87.60
22787;DHT22;63134;52.020;4.714;2022-12-18T15:48:43;1.40;87.50
22787;DHT22;63134;52.020;4.714;2022-12-18T15:51:35;1.50;87.20
22787;DHT22;63134;52.020;4.714;2022-12-18T15:54:25;1.40;87.20
22787;DHT22;63134;52.020;4.714;2022-12-18T15:57:30;1.40;86.90
22787;DHT22;63134;52.020;4.714;2022-12-18T16:00:16;1.40;86.80
22787;DHT22;63134;52.020;4.714;2022-12-18T16:03:02;1.50;87.00
22787;DHT22;63134;52.020;4.714;2022-12-18T16:05:50;1.50;86.70
22787;DHT22;63134;52.020;4.714;2022-12-18T16:08:36;1.50;86.50
22787;DHT22;63134;52.020;4.714;2022-12-18T16:11:26;1.50;86.50
22787;DHT22;63134;52.020;4.714;2022-12-18T16:14:26;1.50;86.50
22787;DHT22;63134;52.020;4.714;2022-12-18T16:17:13;1.50;86.50
22787;DHT22;63134;52.020;4.714;2022-12-18T16:19:58;1.50;86.40
22787;DHT22;63134;52.020;4.714;2022-12-18T16:22:44;1.50;86.40
22787;DHT22;63134;52.020;4.714;2022-12-18T16:25:31;1.50;86.10
22787;DHT22;63134;52.020;4.714;2022-12-18T16:28:16;1.50;86.30
22787;DHT22;63134;52.020;4.714;2022-12-18T16:31:04;1.50;86.20
22787;DHT22;63134;52.020;4.714;2022-12-18T16:33:50;1.50;86.30
22787;DHT22;63134;52.020;4.714;2022-12-18T16:36:59;1.50;86.40
22787;DHT22;63134;52.020;4.714;2022-12-18T16:39:52;1.50;86.10
22787;DHT22;63134;52.020;4.714;2022-12-18T16:42:39;1.60;86.30
22787;DHT22;63134;52.020;4.714;2022-12-18T16:45:26;1.50;86.10
22787;DHT22;63134;52.020;4.714;2022-12-18T16:48:18;1.50;86.00
22787;DHT22;63134;52.020;4.714;2022-12-18T16:51:04;1.60;86.10
22787;DHT22;63134;52.020;4.714;2022-12-18T16:53:53;1.60;86.30
22787;DHT22;63134;52.020;4.714;2022-12-18T16:56:40;1.60;86.30
22787;DHT22;63134;52.020;4.714;2022-12-18T16:59:27;1.60;86.10
22787;DHT22;63134;52.020;4.714;2022-12-18T17:02:20;1.60;86.20
22787;DHT22;63134;52.020;4.714;2022-12-18T17:05:08;1.70;86.20
22787;DHT22;63134;52.020;4.714;2022-12-18T17:07:56;1.70;85.90
22787;DHT22;63134;52.020;4.714;2022-12-18T17:10:42;1.70;86.00
22787;DHT22;63134;52.020;4.714;2022-12-18T17:13:27;1.70;85.90
22787;DHT22;63134;52.020;4.714;2022-12-18T17:16:16;1.70;86.00
22787;DHT22;63134;52.020;4.714;2022-12-18T17:19:05;1.70;86.70
22787;DHT22;63134;52.020;4.714;2022-12-18T17:21:59;1.80;85.90
22787;DHT22;63134;52.020;4.714;2022-12-18T17:24:46;1.80;85.80
22787;DHT22;63134;52.020;4.714;2022-12-18T17:27:35;1.80;86.00
22787;DHT22;63134;52.020;4.714;2022-12-18T17:30:20;1.80;85.90
22787;DHT22;63134;52.020;4.714;2022-12-18T17:33:08;1.80;85.80
22787;DHT22;63134;52.020;4.714;2022-12-18T17:35:57;1.90;85.90
22787;DHT22;63134;52.020;4.714;2022-12-18T17:38:52;1.90;85.70
22787;DHT22;63134;52.020;4.714;2022-12-18T17:41:38;1.90;85.70
22787;DHT22;63134;52.020;4.714;2022-12-18T17:44:23;1.90;85.80
22787;DHT22;63134;52.020;4.714;2022-12-18T17:47:10;1.90;86.40
22787;DHT22;63134;52.020;4.714;2022-12-18T17:49:56;1.90;85.60
22787;DHT22;63134;52.020;4.714;2022-12-18T17:52:41;2.00;85.90
22787;DHT22;63134;52.020;4.714;2022-12-18T17:55:28;2.00;85.70
22787;DHT22;63134;52.020;4.714;2022-12-18T17:58:13;2.00;85.50
22787;DHT22;63134;52.020;4.714;2022-12-18T18:00:59;2.00;85.50
22787;DHT22;63134;52.020;4.714;2022-12-18T18:03:45;2.00;85.50
22787;DHT22;63134;52.020;4.714;2022-12-18T18:06:36;2.10;85.50
22787;DHT22;63134;52.020;4.714;2022-12-18T18:09:23;2.10;86.10
22787;DHT22;63134;52.020;4.714;2022-12-18T18:12:09;2.10;85.10
22787;DHT22;63134;52.020;4.714;2022-12-18T18:15:12;2.10;85.00
22787;DHT22;63134;52.020;4.714;2022-12-18T18:17:59;2.10;85.40
22787;DHT22;63134;52.020;4.714;2022-12-18T18:20:45;2.20;85.10
22787;DHT22;63134;52.020;4.714;2022-12-18T18:23:31;2.10;85.40
22787;DHT22;63134;52.020;4.714;2022-12-18T18:26:20;2.10;84.70
22787;DHT22;63134;52.020;4.714;2022-12-18T18:29:13;2.10;84.60
22787;DHT22;63134;52.020;4.714;2022-12-18T18:31:59;2.20;85.50
22787;DHT22;63134;52.020;4.714;2022-12-18T18:34:45;2.20;84.70
22787;DHT22;63134;52.020;4.714;2022-12-18T18:37:30;2.20;84.60
22787;DHT22;63134;52.020;4.714;2022-12-18T18:40:18;2.20;84.30
22787;DHT22;63134;52.020;4.714;2022-12-18T18:43:06;2.20;84.50
22787;DHT22;63134;52.020;4.714;2022-12-18T18:45:57;2.20;84.50
22787;DHT22;63134;52.020;4.714;2022-12-18T18:48:43;2.20;84.80
22787;DHT22;63134;52.020;4.714;2022-12-18T18:51:29;2.20;84.80
22787;DHT22;63134;52.020;4.714;2022-12-18T18:54:19;2.20;85.00
22787;DHT22;63134;52.020;4.714;2022-12-18T18:57:05;2.20;85.30
22787;DHT22;63134;52.020;4.714;2022-12-18T19:00:11;2.10;85.50
22787;DHT22;63134;52.020;4.714;2022-12-18T19:02:57;2.10;86.10
22787;DHT22;63134;52.020;4.714;2022-12-18T19:05:50;2.10;86.50
22787;DHT22;63134;52.020;4.714;2022-12-18T19:08:37;2.10;86.90
22787;DHT22;63134;52.020;4.714;2022-12-18T19:11:24;2.10;88.10
22787;DHT22;63134;52.020;4.714;2022-12-18T19:14:29;2.10;87.60
22787;DHT22;63134;52.020;4.714;2022-12-18T19:17:17;2.10;88.00
22787;DHT22;63134;52.020;4.714;2022-12-18T19:20:12;2.10;88.30
22787;DHT22;63134;52.020;4.714;2022-12-18T19:22:57;2.10;88.60